createdAt,value
2018-04-23T00:02:22.427Z,9.47
2018-04-23T00:04:49.929Z,9.03
2018-04-23T00:07:17.465Z,9.57
2018-04-23T00:09:45.127Z,9.40
2018-04-23T00:12:12.775Z,10.63
2018-04-23T00:14:40.394Z,9.47
2018-04-23T00:17:08.389Z,9.30
2018-04-23T00:19:36.024Z,9.87
2018-04-23T00:22:03.652Z,9.30
2018-04-23T00:24:32.139Z,10.03
2018-04-23T00:26:59.764Z,9.47
2018-04-23T00:29:28.945Z,9.87
2018-04-23T00:31:56.563Z,10.13
2018-04-23T00:34:24.092Z,9.30
2018-04-23T00:36:52.100Z,10.70
2018-04-23T00:39:19.645Z,9.47
2018-04-23T00:41:47.169Z,9.37
2018-04-23T00:44:14.744Z,9.30
2018-04-23T00:46:42.465Z,9.50
2018-04-23T00:49:10.004Z,9.10
2018-04-23T00:51:37.553Z,9.50
2018-04-23T00:54:05.065Z,10.37
2018-04-23T00:56:32.637Z,11.00
2018-04-23T00:59:00.212Z,10.37
2018-04-23T01:01:27.750Z,10.67
2018-04-23T01:03:55.316Z,10.63
2018-04-23T01:06:22.845Z,10.20
2018-04-23T01:08:50.458Z,10.37
2018-04-23T01:11:18.053Z,9.23
2018-04-23T01:13:45.760Z,9.23
2018-04-23T01:16:13.310Z,10.30
2018-04-23T01:18:40.952Z,10.07
2018-04-23T01:21:08.538Z,12.37
2018-04-23T01:23:36.066Z,10.97
2018-04-23T01:26:03.640Z,11.30
2018-04-23T01:28:31.163Z,10.13
2018-04-23T01:30:58.711Z,10.30
2018-04-23T01:33:26.227Z,9.47
2018-04-23T01:35:53.748Z,9.93
2018-04-23T01:38:21.652Z,10.73
2018-04-23T01:40:49.170Z,10.47
2018-04-23T01:43:17.955Z,10.97
2018-04-23T01:45:45.517Z,10.97
2018-04-23T01:48:18.128Z,9.90
2018-04-23T01:50:50.320Z,9.60
2018-04-23T01:53:23.064Z,10.80
2018-04-23T01:55:55.320Z,11.23
2018-04-23T01:58:29.972Z,10.70
2018-04-23T02:01:02.394Z,9.17
2018-04-23T02:03:35.149Z,11.67
2018-04-23T02:06:07.607Z,11.83
2018-04-23T02:08:39.912Z,13.20
2018-04-23T02:11:11.612Z,11.40
2018-04-23T02:13:44.175Z,10.53
2018-04-23T02:16:17.262Z,10.90
2018-04-23T02:18:49.404Z,11.10
2018-04-23T02:21:22.293Z,11.17
2018-04-23T02:23:55.775Z,10.00
2018-04-23T02:26:29.009Z,10.97
2018-04-23T02:29:03.855Z,10.43
2018-04-23T02:31:38.238Z,9.30
2018-04-23T02:34:11.032Z,11.10
2018-04-23T02:36:43.373Z,10.50
2018-04-23T02:39:16.422Z,11.07
2018-04-23T02:41:48.642Z,10.67
2018-04-23T02:44:21.109Z,9.63
2018-04-23T02:46:53.916Z,9.80
2018-04-23T02:49:28.725Z,9.97
2018-04-23T02:52:04.382Z,10.57
2018-04-23T02:54:39.699Z,9.77
2018-04-23T02:57:11.967Z,11.03
2018-04-23T02:59:44.639Z,11.37
2018-04-23T03:02:17.425Z,10.10
2018-04-23T03:04:47.028Z,10.50
2018-04-23T03:07:14.886Z,10.30
2018-04-23T03:09:42.889Z,10.93
2018-04-23T03:12:10.797Z,9.60
2018-04-23T03:14:38.355Z,10.67
2018-04-23T03:17:06.067Z,9.17
2018-04-23T03:19:33.582Z,11.30
2018-04-23T03:22:01.149Z,10.00
2018-04-23T03:24:28.681Z,9.93
2018-04-23T03:26:56.190Z,8.87
2018-04-23T03:29:24.008Z,9.90
2018-04-23T03:31:52.328Z,9.73
2018-04-23T03:34:20.179Z,9.70
2018-04-23T03:36:47.717Z,10.60
2018-04-23T03:39:16.431Z,9.90
2018-04-23T03:41:44.032Z,9.23
2018-04-23T03:44:11.673Z,8.97
2018-04-23T03:46:39.302Z,9.90
2018-04-23T03:49:06.953Z,10.47
2018-04-23T03:51:35.283Z,10.63
2018-04-23T03:56:34.509Z,9.70
2018-04-23T03:59:02.031Z,8.43
2018-04-23T04:01:29.585Z,10.30
2018-04-23T04:03:57.109Z,9.67
2018-04-23T04:06:24.744Z,10.20
2018-04-23T04:08:52.295Z,9.13
2018-04-23T04:11:19.839Z,11.00
2018-04-23T04:20:42.170Z,9.63
2018-04-23T04:23:09.740Z,9.30
2018-04-23T04:25:37.338Z,10.30
2018-04-23T04:28:04.940Z,9.27
2018-04-23T04:30:32.557Z,9.20
2018-04-23T04:33:00.121Z,9.40
2018-04-23T04:35:27.718Z,9.07
2018-04-23T04:37:55.218Z,9.30
2018-04-23T04:40:22.744Z,8.83
2018-04-23T04:42:50.282Z,9.60
2018-04-23T04:45:17.782Z,9.90
2018-04-23T04:47:45.334Z,11.40
2018-04-23T04:50:13.724Z,10.83
2018-04-23T04:52:42.167Z,10.50
2018-04-23T04:55:11.505Z,10.90
2018-04-23T04:57:39.058Z,11.00
2018-04-23T05:00:06.655Z,10.60
2018-04-23T05:02:34.385Z,9.93
2018-04-23T05:05:02.045Z,10.90
2018-04-23T05:07:35.125Z,10.33
2018-04-23T05:10:02.776Z,10.07
2018-04-23T05:12:30.476Z,8.83
2018-04-23T05:14:58.152Z,10.90
2018-04-23T05:17:26.049Z,14.30
2018-04-23T05:19:53.716Z,11.50
2018-04-23T05:22:21.324Z,13.97
2018-04-23T05:24:48.971Z,13.60
2018-04-23T05:27:16.579Z,12.70
2018-04-23T05:29:44.305Z,14.47
2018-04-23T05:32:11.942Z,13.00
2018-04-23T05:34:39.508Z,14.10
2018-04-23T05:37:07.378Z,13.80
2018-04-23T05:39:36.085Z,16.47
2018-04-23T05:42:03.898Z,18.13
2018-04-23T05:44:31.594Z,17.00
2018-04-23T05:46:59.182Z,18.20
2018-04-23T05:49:26.918Z,16.43
2018-04-23T05:51:54.602Z,16.77
2018-04-23T05:54:22.261Z,16.70
2018-04-23T05:56:49.931Z,15.70
2018-04-23T05:59:17.633Z,14.17
2018-04-23T06:01:45.235Z,13.97
2018-04-23T06:04:12.113Z,16.17
2018-04-23T06:06:39.820Z,14.03
2018-04-23T06:09:07.482Z,13.60
2018-04-23T06:11:35.023Z,14.80
2018-04-23T06:14:02.662Z,15.47
2018-04-23T06:16:30.377Z,17.93
2018-04-23T06:18:58.825Z,14.97
2018-04-23T06:21:26.382Z,14.23
2018-04-23T06:23:53.953Z,12.70
2018-04-23T06:26:21.485Z,10.97
2018-04-23T06:28:49.044Z,9.83
2018-04-23T06:31:16.584Z,9.27
2018-04-23T06:33:44.165Z,8.50
2018-04-23T06:36:11.678Z,9.07
2018-04-23T06:38:39.194Z,9.17
2018-04-23T06:41:06.751Z,8.40
2018-04-23T06:43:34.265Z,8.23
2018-04-23T06:46:01.794Z,10.40
2018-04-23T06:48:29.305Z,8.30
2018-04-23T06:50:56.954Z,8.50
2018-04-23T06:53:26.565Z,7.67
2018-04-23T06:55:54.144Z,8.53
2018-04-23T06:58:21.805Z,6.70
2018-04-23T07:00:49.568Z,7.93
2018-04-23T07:03:17.200Z,6.93
2018-04-23T07:05:44.870Z,6.37
2018-04-23T07:08:12.574Z,6.30
2018-04-23T07:10:40.519Z,7.70
2018-04-23T07:13:08.158Z,7.17
2018-04-23T07:15:35.741Z,6.33
2018-04-23T07:18:03.352Z,7.97
2018-04-23T07:20:31.045Z,6.50
2018-04-23T07:22:58.636Z,7.00
2018-04-23T07:25:26.166Z,7.47
2018-04-23T07:27:53.745Z,6.87
2018-04-23T07:30:21.420Z,9.00
2018-04-23T07:32:49.021Z,7.77
2018-04-23T07:35:17.307Z,7.20
2018-04-23T07:37:44.847Z,7.07
2018-04-23T07:40:12.393Z,7.70
2018-04-23T07:42:40.043Z,7.87
2018-04-23T07:45:07.643Z,9.50
2018-04-23T07:47:35.238Z,8.00
2018-04-23T07:50:02.871Z,7.80
2018-04-23T07:52:30.457Z,8.50
2018-04-23T07:54:58.123Z,7.33
2018-04-23T07:57:26.013Z,7.63
2018-04-23T07:59:53.734Z,7.20
2018-04-23T08:02:22.177Z,7.53
2018-04-23T08:04:49.895Z,8.03
2018-04-23T08:07:17.537Z,7.47
2018-04-23T08:09:45.229Z,6.90
2018-04-23T08:14:46.556Z,7.77
2018-04-23T08:17:14.072Z,7.70
2018-04-23T08:19:41.702Z,10.03
2018-04-23T08:22:09.352Z,8.70
2018-04-23T08:24:37.013Z,8.20
2018-04-23T08:27:04.640Z,8.17
2018-04-23T08:29:32.236Z,7.23
2018-04-23T08:31:59.925Z,6.77
2018-04-23T08:34:27.648Z,7.57
2018-04-23T08:36:55.331Z,8.20
2018-04-23T08:39:23.596Z,7.20
2018-04-23T08:41:51.353Z,7.83
2018-04-23T08:44:18.928Z,6.70
2018-04-23T08:46:46.508Z,7.23
2018-04-23T08:49:14.174Z,7.10
2018-04-23T08:51:41.827Z,6.83
2018-04-23T08:54:09.435Z,6.33
2018-04-23T08:56:37.028Z,6.97
2018-04-23T08:59:04.672Z,7.17
2018-04-23T09:01:32.246Z,7.50
2018-04-23T09:03:59.858Z,6.40
2018-04-23T09:06:27.642Z,7.63
2018-04-23T09:08:55.318Z,7.47
2018-04-23T09:11:22.967Z,6.30
2018-04-23T09:13:50.582Z,7.00
2018-04-23T09:16:18.212Z,7.57
2018-04-23T09:18:45.805Z,6.63
2018-04-23T09:21:14.901Z,6.70
2018-04-23T09:23:42.561Z,6.63
2018-04-23T09:26:10.138Z,6.37
2018-04-23T09:28:37.728Z,7.50
2018-04-23T09:31:05.411Z,7.20
2018-04-23T09:33:33.096Z,6.00
2018-04-23T09:36:00.740Z,6.83
2018-04-23T09:38:28.481Z,6.50
2018-04-23T09:40:56.020Z,7.40
2018-04-23T09:43:23.547Z,6.60
2018-04-23T09:45:51.060Z,7.97
2018-04-23T09:48:18.650Z,6.90
2018-04-23T09:50:46.195Z,6.60
2018-04-23T09:53:13.705Z,5.87
2018-04-23T09:55:41.242Z,6.70
2018-04-23T09:58:08.769Z,7.50
2018-04-23T10:00:36.347Z,6.90
2018-04-23T10:03:11.293Z,7.20
2018-04-23T10:05:41.831Z,5.70
2018-04-23T10:08:09.365Z,6.40
2018-04-23T10:10:37.026Z,6.67
2018-04-23T10:13:04.637Z,6.83
2018-04-23T10:15:32.347Z,7.33
2018-04-23T10:17:59.967Z,7.23
2018-04-23T10:20:27.555Z,6.87
2018-04-23T10:25:27.810Z,7.23
2018-04-23T10:27:55.414Z,7.00
2018-04-23T10:30:22.956Z,6.60
2018-04-23T10:32:50.523Z,8.10
2018-04-23T10:35:18.260Z,6.30
2018-04-23T10:37:45.924Z,7.80
2018-04-23T10:40:13.540Z,7.77
2018-04-23T10:42:41.322Z,7.77
2018-04-23T10:45:08.946Z,6.70
2018-04-23T10:47:36.626Z,6.93
2018-04-23T10:50:04.348Z,7.03
2018-04-23T10:52:32.964Z,6.07
2018-04-23T10:55:00.533Z,6.83
2018-04-23T10:57:28.164Z,5.80
2018-04-23T10:59:55.806Z,5.27
2018-04-23T11:02:23.409Z,6.10
2018-04-23T11:04:51.066Z,8.33
2018-04-23T11:07:18.680Z,6.90
2018-04-23T11:09:46.281Z,6.77
2018-04-23T11:12:13.893Z,6.50
2018-04-23T11:14:41.463Z,5.07
2018-04-23T11:17:09.170Z,5.77
2018-04-23T11:19:36.823Z,5.93
2018-04-23T11:22:04.449Z,6.77
2018-04-23T11:24:32.151Z,5.17
2018-04-23T11:26:59.739Z,5.30
2018-04-23T11:29:27.383Z,5.70
2018-04-23T11:31:55.015Z,4.93
2018-04-23T11:34:22.655Z,5.30
2018-04-23T11:36:50.157Z,6.00
2018-04-23T11:39:18.438Z,6.53
2018-04-23T11:41:46.015Z,5.30
2018-04-23T11:44:13.602Z,6.20
2018-04-23T11:46:41.505Z,25.03
2018-04-23T11:49:09.051Z,7.83
2018-04-23T11:51:36.621Z,6.10
2018-04-23T11:54:04.130Z,5.30
2018-04-23T11:56:31.643Z,6.50
2018-04-23T11:58:59.191Z,6.17
2018-04-23T12:01:26.915Z,5.47
2018-04-23T12:03:54.554Z,5.73
2018-04-23T12:06:22.099Z,6.63
2018-04-23T12:08:49.716Z,6.30
2018-04-23T12:13:50.962Z,6.50
2018-04-23T12:16:18.553Z,4.60
2018-04-23T12:18:46.142Z,5.00
2018-04-23T12:21:13.940Z,4.77
2018-04-23T12:23:41.590Z,4.57
2018-04-23T12:26:09.192Z,4.30
2018-04-23T12:28:36.775Z,5.30
2018-04-23T12:31:04.996Z,5.10
2018-04-23T12:33:32.589Z,4.67
2018-04-23T12:36:00.107Z,4.40
2018-04-23T12:38:27.817Z,5.80
2018-04-23T12:43:29.185Z,5.57
2018-04-23T12:45:56.772Z,4.30
2018-04-23T12:48:24.329Z,4.87
2018-04-23T12:50:51.927Z,4.13
2018-04-23T12:53:19.957Z,4.77
2018-04-23T12:55:47.692Z,3.70
2018-04-23T12:58:15.288Z,4.60
2018-04-23T13:00:43.037Z,4.37
2018-04-23T13:03:11.400Z,4.40
2018-04-23T13:05:54.901Z,3.47
2018-04-23T13:08:22.676Z,5.10
2018-04-23T13:10:50.319Z,4.60
2018-04-23T13:13:17.936Z,5.40
2018-04-23T13:15:45.676Z,4.47
2018-04-23T13:18:13.259Z,6.10
2018-04-23T13:20:40.897Z,4.80
2018-04-23T13:23:08.425Z,3.90
2018-04-23T13:25:36.480Z,5.37
2018-04-23T13:28:04.178Z,5.97
2018-04-23T13:30:31.780Z,4.50
2018-04-23T13:32:59.364Z,3.73
2018-04-23T13:35:26.989Z,4.20
2018-04-23T13:37:54.713Z,4.40
2018-04-23T13:40:22.292Z,5.70
2018-04-23T13:42:49.862Z,4.30
2018-04-23T13:45:19.241Z,4.23
2018-04-23T13:47:47.873Z,4.27
2018-04-23T13:50:16.615Z,5.20
2018-04-23T13:52:44.205Z,3.73
2018-04-23T13:55:12.044Z,3.87
2018-04-23T13:57:39.575Z,4.60
2018-04-23T14:00:07.105Z,4.83
2018-04-23T14:02:34.651Z,5.90
2018-04-23T14:05:02.580Z,4.00
2018-04-23T14:07:30.508Z,4.80
2018-04-23T14:09:58.119Z,4.80
2018-04-23T14:12:26.050Z,5.90
2018-04-23T14:14:53.651Z,5.33
2018-04-23T14:17:21.277Z,4.70
2018-04-23T14:19:48.977Z,6.07
2018-04-23T14:22:16.664Z,4.17
2018-04-23T14:24:44.200Z,4.00
2018-04-23T14:27:11.873Z,4.03
2018-04-23T14:29:39.561Z,4.00
2018-04-23T14:32:07.305Z,4.80
2018-04-23T14:34:34.887Z,4.80
2018-04-23T14:37:02.497Z,3.87
2018-04-23T14:39:30.151Z,4.50
2018-04-23T14:41:57.680Z,3.40
2018-04-23T14:44:25.222Z,5.17
2018-04-23T14:46:52.737Z,3.97
2018-04-23T14:49:20.959Z,4.60
2018-04-23T14:51:48.480Z,3.73
2018-04-23T14:54:16.070Z,4.80
2018-04-23T14:56:43.613Z,5.83
2018-04-23T14:59:11.204Z,5.50
2018-04-23T15:01:39.585Z,7.57
2018-04-23T15:04:07.232Z,6.20
2018-04-23T15:06:34.897Z,7.47
2018-04-23T15:09:02.636Z,7.77
2018-04-23T15:11:30.853Z,6.83
2018-04-23T15:13:58.993Z,7.73
2018-04-23T15:16:26.679Z,5.70
2018-04-23T15:18:54.479Z,6.13
2018-04-23T15:21:22.071Z,6.50
2018-04-23T15:23:49.949Z,5.40
2018-04-23T15:26:17.650Z,4.80
2018-04-23T15:28:45.330Z,5.50
2018-04-23T15:31:14.291Z,7.37
2018-04-23T15:33:41.956Z,4.47
2018-04-23T15:36:09.542Z,3.73
2018-04-23T15:38:37.120Z,3.80
2018-04-23T15:41:04.811Z,4.40
2018-04-23T15:43:32.567Z,5.30
2018-04-23T15:46:00.281Z,4.33
2018-04-23T15:48:27.989Z,4.50
2018-04-23T15:50:55.596Z,4.83
2018-04-23T15:53:23.591Z,4.00
2018-04-23T15:55:51.185Z,3.60
2018-04-23T15:58:18.837Z,4.17
2018-04-23T16:00:46.424Z,4.37
2018-04-23T16:03:14.165Z,4.60
2018-04-23T16:05:42.116Z,4.43
2018-04-23T16:08:11.320Z,3.90
2018-04-23T16:10:38.858Z,4.80
2018-04-23T16:13:06.434Z,4.43
2018-04-23T16:15:33.958Z,4.43
2018-04-23T16:18:01.818Z,15.57
2018-04-23T16:20:29.335Z,6.40
2018-04-23T16:22:56.912Z,5.20
2018-04-23T16:25:24.452Z,4.63
2018-04-23T16:27:51.993Z,4.37
2018-04-23T16:30:19.500Z,4.70
2018-04-23T16:32:47.048Z,5.10
2018-04-23T16:35:14.666Z,3.37
2018-04-23T16:37:42.405Z,4.47
2018-04-23T16:40:10.144Z,4.07
2018-04-23T16:42:37.659Z,4.13
2018-04-23T16:45:05.221Z,4.83
2018-04-23T16:47:32.803Z,4.90
2018-04-23T16:50:00.398Z,5.07
2018-04-23T16:52:28.006Z,5.10
2018-04-23T16:54:55.607Z,4.33
2018-04-23T16:57:23.214Z,4.07
2018-04-23T16:59:50.737Z,4.70
2018-04-23T17:02:18.265Z,4.77
2018-04-23T17:04:45.853Z,5.17
2018-04-23T17:07:13.573Z,4.40
2018-04-23T17:09:41.256Z,4.00
2018-04-23T17:12:08.816Z,4.17
2018-04-23T17:14:36.428Z,3.83
2018-04-23T17:17:03.959Z,3.70
2018-04-23T17:19:31.456Z,4.33
2018-04-23T17:21:59.290Z,4.50
2018-04-23T17:24:27.009Z,4.50
2018-04-23T17:26:54.570Z,4.00
2018-04-23T17:29:22.296Z,3.90
2018-04-23T17:31:49.941Z,4.43
2018-04-23T17:34:17.560Z,5.50
2018-04-23T17:36:45.177Z,4.50
2018-04-23T17:39:12.874Z,4.37
2018-04-23T17:41:40.641Z,4.90
2018-04-23T17:44:08.292Z,5.43
2018-04-23T17:46:35.997Z,4.77
2018-04-23T17:49:03.620Z,5.60
2018-04-23T17:51:31.247Z,6.20
2018-04-23T17:53:58.908Z,4.97
2018-04-23T17:56:26.564Z,4.70
2018-04-23T17:58:54.487Z,5.20
2018-04-23T18:01:22.102Z,4.47
2018-04-23T18:03:54.864Z,5.40
2018-04-23T18:06:22.518Z,6.00
2018-04-23T18:08:50.110Z,6.80
2018-04-23T18:11:18.373Z,5.73
2018-04-23T18:13:45.976Z,6.20
2018-04-23T18:16:13.562Z,4.40
2018-04-23T18:18:41.228Z,9.43
2018-04-23T18:21:08.905Z,6.93
2018-04-23T18:23:36.792Z,7.20
2018-04-23T18:26:04.556Z,6.03
2018-04-23T18:28:32.144Z,6.57
2018-04-23T18:30:59.766Z,4.77
2018-04-23T18:33:44.984Z,5.80
2018-04-23T18:36:12.635Z,5.30
2018-04-23T18:38:40.225Z,4.90
2018-04-23T18:41:07.716Z,5.57
2018-04-23T18:43:35.609Z,4.87
2018-04-23T18:46:03.310Z,4.90
2018-04-23T18:48:31.389Z,4.50
2018-04-23T18:50:59.074Z,6.30
2018-04-23T18:53:27.369Z,5.40
2018-04-23T18:55:55.283Z,4.70
2018-04-23T18:58:23.090Z,6.43
2018-04-23T19:00:50.791Z,6.17
2018-04-23T19:03:18.983Z,6.97
2018-04-23T19:05:46.803Z,5.00
2018-04-23T19:08:14.415Z,5.60
2018-04-23T19:10:42.074Z,5.40
2018-04-23T19:13:11.263Z,5.27
2018-04-23T19:15:39.072Z,5.27
2018-04-23T19:18:06.970Z,6.87
2018-04-23T19:20:34.613Z,6.43
2018-04-23T19:23:02.228Z,5.53
2018-04-23T19:25:30.251Z,5.00
2018-04-23T19:27:58.050Z,6.37
2018-04-23T19:32:59.768Z,5.70
2018-04-23T19:35:27.466Z,5.30
2018-04-23T19:37:55.063Z,6.13
2018-04-23T19:40:22.722Z,4.97
2018-04-23T19:42:50.586Z,5.83
2018-04-23T19:45:18.163Z,4.70
2018-04-23T19:47:45.794Z,5.83
2018-04-23T19:50:13.431Z,5.70
2018-04-23T19:52:40.994Z,5.80
2018-04-23T19:55:08.721Z,5.23
2018-04-23T19:57:36.278Z,5.00
2018-04-23T20:00:03.874Z,5.87
2018-04-23T20:02:31.564Z,5.13
2018-04-23T20:04:59.179Z,5.27
2018-04-23T20:07:27.714Z,4.93
2018-04-23T20:12:30.485Z,5.20
2018-04-23T20:14:58.214Z,5.77
2018-04-23T20:17:26.791Z,6.00
2018-04-23T20:19:54.456Z,5.87
2018-04-23T20:22:22.124Z,5.37
2018-04-23T20:24:49.780Z,5.60
2018-04-23T20:27:17.988Z,5.30
2018-04-23T20:29:45.674Z,5.50
2018-04-23T20:32:13.317Z,4.33
2018-04-23T20:34:41.037Z,5.30
2018-04-23T20:37:09.060Z,5.07
2018-04-23T20:39:36.849Z,5.70
2018-04-23T20:42:04.605Z,5.47
2018-04-23T20:44:32.304Z,4.63
2018-04-23T20:47:00.081Z,6.37
2018-04-23T20:49:27.829Z,6.53
2018-04-23T20:51:55.451Z,7.70
2018-04-23T20:54:23.088Z,6.07
2018-04-23T20:59:40.933Z,6.83
2018-04-23T21:02:08.557Z,5.90
2018-04-23T21:04:36.255Z,6.07
2018-04-23T21:07:03.952Z,7.53
2018-04-23T21:09:31.671Z,5.90
2018-04-23T21:11:59.336Z,7.03
2018-04-23T21:14:27.067Z,6.80
2018-04-23T21:16:54.888Z,5.80
2018-04-23T21:19:22.500Z,6.77
2018-04-23T21:21:50.025Z,12.90
2018-04-23T21:26:51.456Z,7.00
2018-04-23T21:29:19.136Z,6.27
2018-04-23T21:31:46.835Z,6.87
2018-04-23T21:34:14.361Z,6.03
2018-04-23T21:36:43.342Z,6.20
2018-04-23T21:39:12.283Z,5.47
2018-04-23T21:41:39.834Z,6.00
2018-04-23T21:44:07.366Z,4.93
2018-04-23T21:46:34.896Z,5.07
2018-04-23T21:49:02.438Z,5.20
2018-04-23T21:51:31.102Z,6.00
2018-04-23T21:53:58.681Z,6.10
2018-04-23T21:56:26.231Z,5.53
2018-04-23T21:58:53.878Z,6.10
2018-04-23T22:01:21.519Z,5.70
2018-04-23T22:03:50.158Z,6.13
2018-04-23T22:06:17.900Z,5.63
2018-04-23T22:08:45.487Z,5.53
2018-04-23T22:13:46.840Z,5.30
2018-04-23T22:16:14.468Z,5.80
2018-04-23T22:18:42.090Z,5.43
2018-04-23T22:21:11.981Z,5.10
2018-04-23T22:23:39.564Z,4.93
2018-04-23T22:26:07.130Z,5.50
2018-04-23T22:28:34.744Z,5.30
2018-04-23T22:31:02.350Z,5.53
2018-04-23T22:33:29.908Z,5.60
2018-04-23T22:35:57.476Z,5.10
2018-04-23T22:38:25.240Z,6.43
2018-04-23T22:40:54.191Z,6.90
2018-04-23T22:43:24.846Z,5.63
2018-04-23T22:46:14.041Z,4.70
2018-04-23T22:48:43.731Z,4.97
2018-04-23T22:51:15.436Z,6.27
2018-04-23T22:53:43.030Z,5.33
2018-04-23T22:56:13.151Z,5.67
2018-04-23T22:58:41.174Z,5.00
2018-04-23T23:01:08.763Z,4.67
2018-04-23T23:03:36.464Z,5.50
2018-04-23T23:06:03.985Z,5.03
2018-04-23T23:08:31.520Z,5.50
2018-04-23T23:10:59.046Z,5.53
2018-04-23T23:13:27.100Z,5.43
2018-04-23T23:15:54.686Z,5.97
2018-04-23T23:18:22.184Z,5.60
2018-04-23T23:20:49.673Z,5.37
2018-04-23T23:23:17.321Z,6.20
2018-04-23T23:25:44.812Z,4.87
2018-04-23T23:28:12.321Z,5.20
2018-04-23T23:30:39.857Z,5.23
2018-04-23T23:33:07.497Z,6.77
2018-04-23T23:35:35.063Z,5.97
2018-04-23T23:38:02.624Z,5.03
2018-04-23T23:40:30.175Z,5.37
2018-04-23T23:42:57.741Z,5.80
2018-04-23T23:45:25.336Z,6.00
2018-04-23T23:47:52.934Z,6.03
2018-04-23T23:50:20.468Z,5.70
2018-04-23T23:52:47.972Z,5.70
2018-04-23T23:55:15.907Z,5.87
2018-04-23T23:57:43.393Z,5.70
